createdAt,value
2022-12-18T00:01:34.381Z,88.65
2022-12-18T00:04:03.139Z,88.77
2022-12-18T00:06:30.701Z,88.97
2022-12-18T00:08:58.731Z,89.20
2022-12-18T00:11:29.412Z,89.34
2022-12-18T00:13:57.710Z,89.29
2022-12-18T00:16:26.723Z,89.30
2022-12-18T00:18:56.237Z,89.36
2022-12-18T00:21:23.380Z,89.12
2022-12-18T00:23:54.522Z,88.93
2022-12-18T00:26:25.501Z,88.77
2022-12-18T00:28:56.576Z,88.75
2022-12-18T00:31:24.796Z,88.68
2022-12-18T00:33:53.974Z,88.59
2022-12-18T00:36:24.783Z,88.52
2022-12-18T00:38:51.739Z,88.30
2022-12-18T00:41:39.425Z,88.39
2022-12-18T00:44:07.621Z,88.36
2022-12-18T00:46:34.709Z,88.04
2022-12-18T00:49:01.419Z,88.37
2022-12-18T00:51:27.944Z,88.56
2022-12-18T00:53:55.969Z,88.53
2022-12-18T00:56:22.987Z,88.88
2022-12-18T00:58:49.462Z,88.95
2022-12-18T01:01:16.584Z,88.79
2022-12-18T01:03:47.628Z,88.60
2022-12-18T01:06:17.697Z,88.77
2022-12-18T01:08:44.749Z,88.63
2022-12-18T01:11:16.870Z,88.68
2022-12-18T01:13:43.915Z,88.52
2022-12-18T01:16:16.948Z,88.76
2022-12-18T01:18:43.503Z,89.18
2022-12-18T01:21:12.957Z,88.86
2022-12-18T01:23:41.575Z,88.97
2022-12-18T01:26:16.076Z,88.99
2022-12-18T01:28:44.750Z,88.80
2022-12-18T01:31:22.608Z,88.74
2022-12-18T01:33:49.633Z,88.98
2022-12-18T01:36:37.134Z,88.82
2022-12-18T01:39:14.032Z,88.87
2022-12-18T01:41:59.924Z,88.74
2022-12-18T01:45:03.825Z,89.38
2022-12-18T01:47:47.783Z,89.25
2022-12-18T01:50:18.871Z,88.71
2022-12-18T01:53:16.790Z,88.94
2022-12-18T01:55:49.415Z,89.06
2022-12-18T01:58:16.537Z,88.74
2022-12-18T02:00:43.187Z,89.20
2022-12-18T02:03:13.102Z,89.16
2022-12-18T02:05:52.076Z,88.83
2022-12-18T02:08:34.859Z,88.59
2022-12-18T02:11:16.530Z,88.53
2022-12-18T02:14:29.028Z,88.57
2022-12-18T02:17:01.406Z,88.57
2022-12-18T02:19:33.786Z,88.26
2022-12-18T02:22:15.559Z,88.97
2022-12-18T02:24:56.083Z,89.03
2022-12-18T02:27:22.753Z,88.95
2022-12-18T02:29:58.214Z,88.78
2022-12-18T02:32:32.714Z,88.93
2022-12-18T02:35:01.776Z,88.96
2022-12-18T02:37:30.604Z,88.59
2022-12-18T02:40:02.692Z,88.67
2022-12-18T02:42:29.278Z,88.68
2022-12-18T02:44:55.800Z,88.68
2022-12-18T02:47:27.026Z,88.84
2022-12-18T02:50:19.947Z,88.65
2022-12-18T02:53:04.845Z,88.61
2022-12-18T02:55:55.292Z,88.49
2022-12-18T02:58:25.584Z,88.52
2022-12-18T03:01:25.323Z,88.25
2022-12-18T03:04:15.438Z,88.58
2022-12-18T03:06:49.183Z,88.67
2022-12-18T03:09:25.792Z,88.93
2022-12-18T03:12:24.415Z,89.07
2022-12-18T03:15:01.747Z,89.02
2022-12-18T03:17:31.621Z,89.07
2022-12-18T03:20:03.306Z,89.26
2022-12-18T03:22:31.856Z,89.26
2022-12-18T03:25:01.561Z,89.13
2022-12-18T03:27:30.695Z,89.25
2022-12-18T03:30:08.541Z,88.64
2022-12-18T03:33:09.891Z,88.99
2022-12-18T03:35:42.806Z,88.92
2022-12-18T03:38:13.970Z,88.76
2022-12-18T03:40:58.065Z,88.55
2022-12-18T03:43:27.477Z,89.65
2022-12-18T03:46:03.554Z,89.41
2022-12-18T03:48:40.150Z,89.48
2022-12-18T03:51:16.172Z,89.27
2022-12-18T03:53:59.299Z,89.43
2022-12-18T03:56:30.552Z,89.27
2022-12-18T03:58:58.919Z,88.97
2022-12-18T04:01:32.941Z,89.34
2022-12-18T04:04:05.472Z,89.59
2022-12-18T04:06:33.167Z,89.43
2022-12-18T04:09:00.118Z,89.25
2022-12-18T04:11:26.866Z,89.47
2022-12-18T04:13:58.532Z,89.64
2022-12-18T04:16:25.405Z,89.86
2022-12-18T04:18:51.949Z,89.55
2022-12-18T04:21:18.465Z,89.78
2022-12-18T04:23:44.897Z,89.59
2022-12-18T04:26:11.408Z,89.69
2022-12-18T04:28:37.952Z,89.89
2022-12-18T04:31:04.581Z,89.38
2022-12-18T04:33:31.087Z,89.49
2022-12-18T04:35:57.642Z,89.45
2022-12-18T04:38:24.069Z,89.16
2022-12-18T04:40:50.506Z,89.00
2022-12-18T04:43:17.145Z,89.04
2022-12-18T04:45:43.708Z,88.97
2022-12-18T04:48:10.315Z,89.24
2022-12-18T04:50:37.477Z,89.00
2022-12-18T04:53:04.074Z,89.11
2022-12-18T04:55:33.642Z,89.01
2022-12-18T04:58:00.153Z,88.95
2022-12-18T05:00:26.586Z,88.76
2022-12-18T05:02:53.501Z,88.86
2022-12-18T05:05:20.066Z,88.76
2022-12-18T05:07:46.643Z,88.79
2022-12-18T05:10:13.175Z,89.05
2022-12-18T05:12:58.945Z,89.09
2022-12-18T05:15:33.179Z,89.04
2022-12-18T05:18:00.537Z,89.49
2022-12-18T05:20:28.160Z,89.31
2022-12-18T05:22:55.603Z,89.46
2022-12-18T05:25:23.128Z,89.74
2022-12-18T05:27:49.771Z,89.99
2022-12-18T05:30:17.370Z,90.06
2022-12-18T05:32:44.211Z,89.53
2022-12-18T05:35:11.720Z,89.65
2022-12-18T05:37:42.903Z,89.09
2022-12-18T05:40:10.961Z,89.14
2022-12-18T05:42:37.561Z,89.04
2022-12-18T05:45:07.718Z,88.76
2022-12-18T05:47:34.975Z,88.83
2022-12-18T05:50:01.406Z,88.67
2022-12-18T05:52:27.976Z,88.90
2022-12-18T05:54:54.526Z,89.11
2022-12-18T05:57:20.976Z,89.26
2022-12-18T05:59:47.503Z,89.23
2022-12-18T06:02:14.076Z,89.24
2022-12-18T06:04:40.728Z,89.34
2022-12-18T06:07:07.198Z,89.51
2022-12-18T06:09:33.644Z,89.58
2022-12-18T06:12:00.139Z,89.79
2022-12-18T06:14:26.739Z,89.73
2022-12-18T06:16:53.358Z,89.75
2022-12-18T06:19:19.897Z,89.73
2022-12-18T06:21:46.764Z,89.96
2022-12-18T06:24:13.375Z,89.73
2022-12-18T06:26:40.388Z,89.57
2022-12-18T06:29:06.991Z,89.28
2022-12-18T06:31:33.941Z,89.86
2022-12-18T06:34:03.533Z,89.50
2022-12-18T06:36:30.499Z,89.88
2022-12-18T06:38:57.321Z,89.83
2022-12-18T06:41:24.113Z,89.89
2022-12-18T06:43:52.191Z,89.95
2022-12-18T06:46:21.200Z,90.04
2022-12-18T06:48:49.828Z,90.11
2022-12-18T06:51:20.808Z,89.70
2022-12-18T06:53:47.512Z,89.62
2022-12-18T06:56:13.969Z,89.46
2022-12-18T06:58:40.547Z,89.43
2022-12-18T07:01:09.499Z,89.34
2022-12-18T07:03:36.437Z,89.57
2022-12-18T07:06:03.350Z,89.66
2022-12-18T07:08:31.238Z,89.62
2022-12-18T07:10:57.709Z,89.81
2022-12-18T07:13:24.423Z,89.80
2022-12-18T07:15:51.036Z,89.56
2022-12-18T07:18:17.513Z,89.56
2022-12-18T07:20:43.956Z,89.54
2022-12-18T07:23:10.490Z,89.49
2022-12-18T07:25:37.954Z,89.43
2022-12-18T07:28:04.822Z,89.78
2022-12-18T07:30:31.415Z,89.67
2022-12-18T07:32:57.880Z,89.50
2022-12-18T07:35:25.329Z,89.78
2022-12-18T07:37:52.098Z,89.76
2022-12-18T07:40:18.631Z,89.63
2022-12-18T07:42:48.071Z,89.76
2022-12-18T07:45:14.544Z,89.60
2022-12-18T07:47:42.265Z,89.92
2022-12-18T07:50:09.145Z,89.86
2022-12-18T07:52:35.592Z,89.91
2022-12-18T07:55:02.156Z,90.22
2022-12-18T07:57:49.361Z,90.54
2022-12-18T08:00:15.600Z,90.33
2022-12-18T08:02:42.275Z,90.15
2022-12-18T08:05:11.944Z,90.59
2022-12-18T08:07:41.218Z,90.37
2022-12-18T08:10:08.271Z,90.06
2022-12-18T08:12:34.785Z,89.87
2022-12-18T08:15:01.576Z,90.04
2022-12-18T08:17:31.314Z,90.23
2022-12-18T08:19:57.800Z,89.90
2022-12-18T08:22:24.460Z,90.08
2022-12-18T08:24:50.989Z,90.40
2022-12-18T08:27:32.775Z,90.65
2022-12-18T08:29:59.478Z,90.23
2022-12-18T08:32:27.286Z,90.32
2022-12-18T08:34:53.772Z,90.17
2022-12-18T08:37:20.739Z,90.07
2022-12-18T08:39:47.269Z,89.97
2022-12-18T08:42:32.234Z,90.01
2022-12-18T08:44:58.676Z,90.21
2022-12-18T08:47:26.898Z,89.97
2022-12-18T08:49:53.342Z,90.43
2022-12-18T08:52:19.852Z,90.14
2022-12-18T08:54:46.338Z,89.93
2022-12-18T08:57:12.904Z,90.12
2022-12-18T08:59:39.361Z,89.03
2022-12-18T09:02:06.089Z,88.87
2022-12-18T09:04:32.702Z,88.93
2022-12-18T09:06:59.126Z,88.84
2022-12-18T09:09:25.682Z,89.02
2022-12-18T09:11:52.180Z,88.80
2022-12-18T09:14:18.669Z,88.07
2022-12-18T09:16:45.166Z,88.52
2022-12-18T09:19:11.907Z,88.58
2022-12-18T09:21:46.121Z,87.44
2022-12-18T09:24:15.499Z,86.86
2022-12-18T09:26:43.490Z,86.70
2022-12-18T09:29:13.474Z,86.79
2022-12-18T09:31:40.475Z,85.91
2022-12-18T09:34:07.472Z,85.66
2022-12-18T09:36:34.174Z,84.63
2022-12-18T09:39:03.847Z,84.13
2022-12-18T09:41:54.719Z,83.50
2022-12-18T09:44:26.485Z,83.13
2022-12-18T09:47:05.419Z,82.64
2022-12-18T09:49:35.975Z,82.52
2022-12-18T09:52:38.449Z,85.42
2022-12-18T09:55:23.921Z,88.02
2022-12-18T09:57:55.936Z,89.68
2022-12-18T10:00:24.623Z,89.99
2022-12-18T10:02:55.568Z,89.97
2022-12-18T10:05:37.437Z,90.69
2022-12-18T10:08:10.851Z,91.12
2022-12-18T10:11:02.434Z,90.73
2022-12-18T10:13:41.055Z,90.63
2022-12-18T10:16:18.777Z,90.81
2022-12-18T10:19:16.266Z,90.69
2022-12-18T10:22:15.171Z,90.94
2022-12-18T10:25:06.259Z,91.13
2022-12-18T10:27:33.569Z,90.44
2022-12-18T10:30:02.160Z,89.59
2022-12-18T10:32:31.480Z,89.58
2022-12-18T10:35:00.813Z,89.79
2022-12-18T10:37:29.922Z,89.80
2022-12-18T10:40:22.311Z,89.29
2022-12-18T10:43:05.090Z,87.81
2022-12-18T10:45:31.578Z,86.76
2022-12-18T10:47:59.016Z,87.46
2022-12-18T10:50:47.176Z,87.24
2022-12-18T10:53:20.826Z,87.47
2022-12-18T10:55:48.330Z,87.67
2022-12-18T10:58:26.578Z,88.19
2022-12-18T11:01:22.786Z,88.09
2022-12-18T11:04:00.330Z,88.04
2022-12-18T11:06:29.038Z,88.24
2022-12-18T11:09:13.359Z,88.63
2022-12-18T11:11:41.753Z,89.31
2022-12-18T11:14:20.025Z,89.76
2022-12-18T11:19:40.682Z,89.29
2022-12-18T11:22:29.624Z,89.38
2022-12-18T11:25:32.133Z,89.62
2022-12-18T11:28:00.430Z,89.59
2022-12-18T11:30:28.908Z,89.21
2022-12-18T11:33:01.945Z,89.46
2022-12-18T11:35:38.871Z,89.82
2022-12-18T11:38:20.261Z,89.33
2022-12-18T11:40:52.622Z,89.12
2022-12-18T11:43:31.491Z,88.84
2022-12-18T11:46:06.336Z,89.12
2022-12-18T11:48:46.056Z,88.41
2022-12-18T11:51:24.942Z,88.50
2022-12-18T11:53:53.603Z,87.26
2022-12-18T11:56:40.246Z,86.65
2022-12-18T11:59:23.420Z,86.66
2022-12-18T12:01:54.607Z,86.91
2022-12-18T12:04:33.162Z,86.28
2022-12-18T12:07:03.127Z,86.39
2022-12-18T12:09:58.750Z,86.58
2022-12-18T12:12:49.394Z,87.26
2022-12-18T12:15:26.843Z,87.67
2022-12-18T12:18:38.999Z,87.61
2022-12-18T12:21:23.632Z,88.54
2022-12-18T12:24:21.558Z,89.11
2022-12-18T12:27:24.099Z,89.04
2022-12-18T12:30:08.455Z,88.63
2022-12-18T12:32:45.662Z,89.38
2022-12-18T12:35:53.782Z,89.01
2022-12-18T12:38:36.491Z,88.94
2022-12-18T12:41:06.630Z,89.27
2022-12-18T12:43:50.427Z,89.42
2022-12-18T12:46:22.378Z,89.83
2022-12-18T12:48:49.138Z,90.02
2022-12-18T12:51:22.772Z,90.11
2022-12-18T12:53:50.997Z,90.65
2022-12-18T12:56:20.252Z,90.86
2022-12-18T12:58:50.335Z,91.16
2022-12-18T13:01:42.077Z,91.01
2022-12-18T13:04:32.522Z,91.29
2022-12-18T13:07:07.866Z,91.66
2022-12-18T13:09:36.826Z,91.65
2022-12-18T13:12:30.608Z,91.86
2022-12-18T13:15:22.625Z,92.58
2022-12-18T13:17:49.513Z,92.30
2022-12-18T13:20:19.302Z,92.90
2022-12-18T13:22:48.728Z,93.76
2022-12-18T13:25:34.730Z,94.01
2022-12-18T13:28:02.725Z,93.85
2022-12-18T13:30:32.564Z,94.99
2022-12-18T13:33:14.241Z,95.89
2022-12-18T13:35:46.884Z,96.24
2022-12-18T13:38:31.536Z,96.42
2022-12-18T13:41:26.465Z,96.46
2022-12-18T13:44:00.286Z,95.49
2022-12-18T13:46:28.723Z,95.72
2022-12-18T13:49:06.356Z,95.91
2022-12-18T13:51:36.101Z,96.37
2022-12-18T13:54:21.376Z,97.14
2022-12-18T13:56:52.257Z,97.10
2022-12-18T13:59:22.270Z,97.29
2022-12-18T14:01:57.861Z,97.51
2022-12-18T14:04:24.950Z,97.29
2022-12-18T14:06:56.262Z,97.61
2022-12-18T14:09:30.437Z,97.61
2022-12-18T14:12:19.740Z,97.84
2022-12-18T14:14:49.152Z,97.90
2022-12-18T14:17:18.298Z,98.16
2022-12-18T14:19:50.869Z,98.65
2022-12-18T14:22:21.145Z,98.72
2022-12-18T14:25:05.358Z,98.42
2022-12-18T14:27:31.843Z,98.58
2022-12-18T14:29:59.196Z,98.62
2022-12-18T14:32:32.740Z,99.21
2022-12-18T14:34:59.794Z,99.05
2022-12-18T14:37:28.006Z,99.19
2022-12-18T14:40:02.172Z,99.91
2022-12-18T14:42:31.408Z,100.00
2022-12-18T14:45:43.170Z,100.00
2022-12-18T14:48:20.706Z,100.00
2022-12-18T14:50:59.422Z,99.90
2022-12-18T14:53:42.263Z,100.00
2022-12-18T14:56:24.815Z,100.00
2022-12-18T14:58:57.805Z,100.00
2022-12-18T15:01:52.512Z,100.00
2022-12-18T15:04:27.252Z,100.00
2022-12-18T15:07:18.755Z,100.00
2022-12-18T15:10:01.733Z,100.00
2022-12-18T15:12:38.217Z,100.00
2022-12-18T15:15:06.566Z,100.00
2022-12-18T15:17:33.140Z,100.00
2022-12-18T15:20:10.052Z,100.00
2022-12-18T15:22:39.731Z,100.00
2022-12-18T15:25:32.434Z,100.00
2022-12-18T15:27:59.135Z,100.00
2022-12-18T15:30:26.464Z,100.00
2022-12-18T15:33:18.401Z,100.00
2022-12-18T15:35:47.153Z,100.00
2022-12-18T15:38:13.856Z,100.00
2022-12-18T15:40:40.416Z,100.00
2022-12-18T15:43:27.895Z,100.00
2022-12-18T15:45:54.420Z,100.00
2022-12-18T15:48:24.640Z,100.00
2022-12-18T15:50:52.903Z,100.00
2022-12-18T15:53:19.967Z,100.00
2022-12-18T15:56:05.090Z,100.00
2022-12-18T15:58:31.577Z,100.00
2022-12-18T16:01:00.497Z,100.00
2022-12-18T16:03:27.301Z,100.00
2022-12-18T16:05:53.981Z,100.00
2022-12-18T16:08:20.768Z,100.00
2022-12-18T16:10:47.358Z,100.00
2022-12-18T16:13:19.227Z,100.00
2022-12-18T16:15:45.809Z,100.00
2022-12-18T16:18:12.289Z,100.00
2022-12-18T16:20:39.621Z,100.00
2022-12-18T16:23:06.066Z,100.00
2022-12-18T16:25:32.960Z,100.00
2022-12-18T16:27:59.568Z,100.00
2022-12-18T16:30:33.089Z,100.00
2022-12-18T16:33:05.782Z,100.00
2022-12-18T16:35:33.964Z,100.00
2022-12-18T16:38:00.720Z,100.00
2022-12-18T16:40:27.242Z,100.00
2022-12-18T16:42:53.814Z,100.00
2022-12-18T16:45:20.429Z,100.00
2022-12-18T16:47:46.936Z,100.00
2022-12-18T16:50:16.242Z,100.00
2022-12-18T16:52:42.815Z,100.00
2022-12-18T16:55:09.609Z,100.00
2022-12-18T16:57:36.112Z,100.00
2022-12-18T17:00:05.825Z,100.00
2022-12-18T17:02:32.814Z,100.00
2022-12-18T17:04:59.726Z,100.00
2022-12-18T17:07:27.137Z,100.00
2022-12-18T17:09:54.414Z,100.00
2022-12-18T17:12:21.228Z,99.73
2022-12-18T17:14:47.761Z,99.98
2022-12-18T17:17:23.036Z,99.82
2022-12-18T17:19:51.194Z,99.47
2022-12-18T17:22:17.837Z,99.32
2022-12-18T17:24:44.322Z,99.26
2022-12-18T17:27:10.888Z,99.37
2022-12-18T17:29:40.114Z,99.93
2022-12-18T17:32:10.383Z,99.88
2022-12-18T17:34:37.633Z,99.50
2022-12-18T17:37:04.153Z,98.24
2022-12-18T17:39:30.835Z,98.08
2022-12-18T17:41:59.420Z,97.65
2022-12-18T17:44:25.855Z,97.50
2022-12-18T17:46:52.476Z,97.43
2022-12-18T17:49:22.220Z,97.60
2022-12-18T17:51:49.044Z,97.62
2022-12-18T17:54:15.715Z,97.39
2022-12-18T17:56:42.518Z,97.27
2022-12-18T17:59:09.493Z,96.97
2022-12-18T18:01:42.427Z,97.56
2022-12-18T18:04:10.986Z,97.46
2022-12-18T18:06:38.860Z,97.04
2022-12-18T18:09:06.063Z,97.41
2022-12-18T18:11:53.222Z,97.35
2022-12-18T18:14:21.863Z,97.04
2022-12-18T18:16:54.059Z,96.79
2022-12-18T18:19:24.472Z,96.02
2022-12-18T18:21:53.217Z,96.25
2022-12-18T18:24:23.591Z,95.74
2022-12-18T18:26:50.782Z,96.03
2022-12-18T18:29:20.237Z,95.96
2022-12-18T18:31:47.692Z,96.23
2022-12-18T18:34:21.035Z,96.04
2022-12-18T18:36:47.620Z,96.16
2022-12-18T18:39:17.677Z,96.29
2022-12-18T18:41:47.205Z,96.71
2022-12-18T18:44:15.800Z,96.85
2022-12-18T18:46:42.285Z,97.14
2022-12-18T18:49:09.547Z,97.54
2022-12-18T18:51:36.035Z,97.62
2022-12-18T18:54:02.992Z,97.43
2022-12-18T18:59:16.947Z,97.92
2022-12-18T19:01:44.094Z,97.68
2022-12-18T19:04:10.781Z,97.49
2022-12-18T19:06:37.383Z,97.61
2022-12-18T19:09:06.462Z,97.59
2022-12-18T19:11:51.745Z,97.07
2022-12-18T19:14:18.778Z,96.17
2022-12-18T19:16:45.754Z,96.43
2022-12-18T19:19:13.285Z,97.68
2022-12-18T19:21:39.963Z,97.74
2022-12-18T19:24:06.752Z,98.42
2022-12-18T19:26:33.410Z,97.85
2022-12-18T19:29:07.618Z,97.91
2022-12-18T19:31:36.746Z,98.11
2022-12-18T19:34:06.595Z,98.27
2022-12-18T19:36:36.158Z,98.43
2022-12-18T19:39:17.523Z,97.92
2022-12-18T19:41:44.593Z,97.87
2022-12-18T19:44:13.076Z,98.12
2022-12-18T19:46:41.706Z,97.95
2022-12-18T19:49:21.167Z,97.63
2022-12-18T19:51:47.652Z,97.72
2022-12-18T19:54:17.740Z,97.61
2022-12-18T19:56:49.214Z,97.74
2022-12-18T19:59:15.838Z,97.97
2022-12-18T20:01:42.429Z,97.78
2022-12-18T20:04:09.182Z,97.02
2022-12-18T20:06:47.024Z,95.80
2022-12-18T20:09:13.650Z,94.95
2022-12-18T20:11:41.930Z,93.46
2022-12-18T20:14:12.869Z,92.17
2022-12-18T20:16:39.887Z,91.75
2022-12-18T20:19:07.084Z,89.32
2022-12-18T20:21:33.984Z,86.77
2022-12-18T20:24:01.935Z,85.95
2022-12-18T20:26:28.658Z,86.47
2022-12-18T20:28:55.935Z,86.39
2022-12-18T20:31:24.133Z,86.01
2022-12-18T20:33:51.028Z,82.50
2022-12-18T20:36:22.379Z,83.15
2022-12-18T20:38:51.099Z,81.83
2022-12-18T20:41:20.133Z,82.25
2022-12-18T20:43:47.592Z,81.73
2022-12-18T20:46:16.108Z,81.33
2022-12-18T20:48:43.624Z,83.29
2022-12-18T20:51:15.703Z,82.71
2022-12-18T20:53:42.945Z,77.40
2022-12-18T20:56:17.765Z,79.05
2022-12-18T20:58:54.807Z,78.88
2022-12-18T21:01:22.937Z,80.73
2022-12-18T21:03:50.518Z,80.18
2022-12-18T21:06:22.113Z,79.77
2022-12-18T21:08:49.205Z,77.53
2022-12-18T21:11:40.532Z,79.08
2022-12-18T21:14:11.321Z,82.67
2022-12-18T21:16:38.093Z,79.62
2022-12-18T21:19:04.591Z,79.53
2022-12-18T21:21:33.277Z,80.30
2022-12-18T21:24:05.784Z,80.03
2022-12-18T21:26:32.341Z,76.73
2022-12-18T21:29:00.897Z,75.12
2022-12-18T21:31:30.675Z,67.59
2022-12-18T21:34:02.140Z,70.06
2022-12-18T21:36:29.596Z,71.11
2022-12-18T21:38:57.160Z,70.72
2022-12-18T21:41:47.111Z,71.13
2022-12-18T21:44:16.451Z,72.13
2022-12-18T21:46:51.518Z,72.95
2022-12-18T21:49:22.458Z,74.10
2022-12-18T21:51:50.954Z,74.02
2022-12-18T21:54:21.514Z,74.92
2022-12-18T21:56:55.096Z,75.25
2022-12-18T21:59:27.255Z,77.15
2022-12-18T22:01:56.144Z,78.47
2022-12-18T22:04:24.805Z,79.29
2022-12-18T22:06:52.764Z,79.71
2022-12-18T22:09:24.326Z,81.03
2022-12-18T22:11:52.243Z,81.93
2022-12-18T22:14:19.317Z,81.25
2022-12-18T22:16:46.442Z,82.82
2022-12-18T22:19:14.830Z,83.47
2022-12-18T22:21:43.757Z,84.54
2022-12-18T22:24:20.056Z,85.45
2022-12-18T22:26:51.278Z,87.20
2022-12-18T22:29:41.200Z,87.78
2022-12-18T22:32:12.905Z,88.40
2022-12-18T22:34:41.591Z,88.85
2022-12-18T22:37:10.437Z,88.51
2022-12-18T22:39:36.981Z,88.61
2022-12-18T22:42:03.840Z,90.31
2022-12-18T22:44:30.346Z,89.64
2022-12-18T22:47:05.646Z,90.20
2022-12-18T22:49:35.374Z,90.99
2022-12-18T22:52:03.891Z,92.40
2022-12-18T22:54:30.940Z,93.42
2022-12-18T22:56:57.632Z,93.77
2022-12-18T22:59:24.365Z,93.45
2022-12-18T23:01:58.348Z,93.41
2022-12-18T23:04:29.311Z,92.98
2022-12-18T23:07:06.348Z,94.26
2022-12-18T23:09:36.006Z,93.42
2022-12-18T23:12:05.582Z,92.99
2022-12-18T23:14:33.838Z,93.67
2022-12-18T23:17:00.328Z,95.56
2022-12-18T23:19:26.884Z,94.79
2022-12-18T23:21:54.864Z,95.94
2022-12-18T23:24:25.300Z,95.72
2022-12-18T23:26:53.059Z,95.13
2022-12-18T23:29:19.665Z,94.33
2022-12-18T23:31:46.554Z,95.14
2022-12-18T23:34:14.592Z,95.53
2022-12-18T23:36:45.541Z,96.61
2022-12-18T23:39:15.397Z,98.29
2022-12-18T23:41:58.936Z,98.33
2022-12-18T23:44:25.814Z,98.45
2022-12-18T23:46:52.788Z,99.75
2022-12-18T23:49:19.396Z,97.87
2022-12-18T23:51:45.861Z,96.25
2022-12-18T23:54:12.853Z,96.28
2022-12-18T23:56:42.245Z,96.22
2022-12-18T23:59:08.867Z,95.84
